メインページ
METAR-TAF:

METAR-TAF

空港 :

メアリー, トルクメニスタン

緯度: 37-36-24N, 経度: 061-54-05E, 海抜: 222m

現時点の気象観測

当レポートは59分前の05:00(UTC)に作成
南西の風 6kt
気温 20°C
湿度 60%
気圧 1016 hPa
視程10km以上
1,500メートル以下は雲なし、積乱雲なし

METAR: UTAM 040500Z 22006KT CAVOK 20/12 Q1016 R88/CLRD70 NOSIG

時間: 10:59 (05:59 UTC)

予報

当レポートは1時間19分前の04:40(UTC)に作成
予報は04日の 05時(UTC)から 05日の 06時(UTC)まで有効
西の風 16kt
視程: 5000m
高度3000ftの千切れ雲あり
高度5000ftの雲は散在している, 積乱雲.
04日の 05時(UTC)から 04日の 15時(UTC)まで一時的に
南西の風 16kt、最大26ktの突風を伴う
視程: 3000m
高度2000ftの千切れ雲あり
低いドリフト塵
04日の 15時(UTC)から 04日の 16時(UTC)まで徐々に
北西の風 16kt
04日の 15時(UTC)から 05日の 06時(UTC)まで一時的に
西/北西の風 18kt、最大28ktの突風を伴う
視程: 2000m
高度1500ftの千切れ雲あり

TAF: UTAM 040440Z 0405/0506 27016KT 5000 BKN030 SCT050CB TEMPO 0405/0415 23016G26KT 3000 DRDU -TSSHRA BKN020 BECMG 0415/0416 32016KT TEMPO 0415/0506 30018G28KT 2000 BR TSSHRA BKN015

4,000以上の空港の気象観測と天気予報(METAR報とTAF報)

利用可能な観測所は地図上に黄色い丸と赤い丸で示す。

丸の上にカーソルを重ねると観測所名を参照できる。

次にクリックすると気象観測と天気予報を参照できる。

マップの切り替え:黒色「×」印の緑ボタンをクリックして拡大、「-」印の緑ボタンをクリックして縮小、緑色の三角印をクリックして隣りの地図に切り替え


METAR-TAF: